KHNB

Huntingburg Airport

Huntingburg, Indiana, USA
KHNB 241955Z 2420/2518 17009KT P6SM VCSH SCT007 OVC012 TEMPO 2420/2423 5SM -SHRA BKN007 FM250000 15008KT P6SM VCSH SCT007 BKN015 FM250600 18009KT P6SM VCSH BKN009 FM251200 19010KT 5SM -SHRA BR BKN005
Issued Valid From Valid To
Sep-24 @ 19:55 UTC
(3 hours ago)
Sep-24 @ 20:00 UTC
(3 hours ago)
Sep-25 @ 18:00 UTC
(in 19 hours)
Sep-24 @ 20:00 to Sep-25 @ 00:00
KHNB 241955Z 2420/2518 17009KT P6SM VCSH SCT007 OVC012
Wind Visibility Clouds
170° at 9 knots Greater than 6 miles
  • Scattered at 700' AGL
  • Overcast at 1,200' AGL
Expired Click to View Sep-24 @ 20:00 to Sep-24 @ 23:00
TEMPO 2420/2423 5SM -SHRA BKN007
Visibility Clouds Conditions
5 miles
  • Broken at 700' AGL
  • Light Rain
From Sep-25 @ 00:00 to Sep-25 @ 06:00
FM250000 15008KT P6SM VCSH SCT007 BKN015
Wind Visibility Clouds
150° at 8 knots Greater than 6 miles
  • Scattered at 700' AGL
  • Broken at 1,500' AGL
From Sep-25 @ 06:00 to Sep-25 @ 12:00
FM250600 18009KT P6SM VCSH BKN009
Wind Visibility Clouds
180° at 9 knots Greater than 6 miles
  • Broken at 900' AGL
From Sep-25 @ 12:00 to Sep-25 @ 18:00
FM251200 19010KT 5SM -SHRA BR BKN005
Wind Visibility Clouds Conditions
190° at 10 knots 5 miles
  • Broken at 500' AGL
  • Light Rain
  • Mist
KHNB 241955Z 2420/2518 17009KT P6SM VCSH SCT007 OVC012 TEMPO 2420/2423 5SM -SHRA BKN007 FM250000 15008KT P6SM VCSH SCT007 BKN015 FM250600 18009KT P6SM VCSH BKN009 FM251200 19010KT 5SM -SHRA BR BKN005
Issued Sep-24 @ 19:55 UTC
(3 hours ago)
Valid From Sep-24 @ 20:00 UTC
(3 hours ago)
Valid To Sep-25 @ 18:00 UTC
(in 19 hours)
Sep-24 @ 20:00 - Sep-25 @ 00:00
Wind Visibility
170° at 9 knots Greater than 6 miles
Clouds
  • Scattered at 700' AGL
  • Overcast at 1,200' AGL
Sep-24 @ 20:00 - Sep-24 @ 23:00
Clouds
  • Broken at 700' AGL
Conditions
  • Light Rain
From Sep-25 @ 00:00 - Sep-25 @ 06:00
Wind Visibility
150° at 8 knots Greater than 6 miles
Clouds
  • Scattered at 700' AGL
  • Broken at 1,500' AGL
From Sep-25 @ 06:00 - Sep-25 @ 12:00
Wind Visibility
180° at 9 knots Greater than 6 miles
Clouds
  • Broken at 900' AGL
From Sep-25 @ 12:00 - Sep-25 @ 18:00
Wind Visibility
190° at 10 knots 5 miles
Clouds
  • Broken at 500' AGL
Conditions
  • Light Rain
  • Mist